createdAt,value
2022-08-17T00:04:21.163Z,56.81
2022-08-17T00:09:24.853Z,58.51
2022-08-17T00:14:29.293Z,60.04
2022-08-17T00:19:33.207Z,69.08
2022-08-17T00:24:36.418Z,63.42
2022-08-17T00:29:39.558Z,55.81
2022-08-17T00:34:42.833Z,56.31
2022-08-17T00:39:46.121Z,57.77
2022-08-17T00:44:49.562Z,59.84
2022-08-17T00:49:53.075Z,68.86
2022-08-17T00:54:57.329Z,62.56
2022-08-17T01:00:36.181Z,55.34
2022-08-17T01:05:42.524Z,55.21
2022-08-17T01:10:59.176Z,57.76
2022-08-17T01:16:21.725Z,59.47
2022-08-17T01:21:41.521Z,67.07
2022-08-17T01:26:46.542Z,62.36
2022-08-17T01:31:57.045Z,54.93
2022-08-17T01:37:00.686Z,55.12
2022-08-17T01:42:28.962Z,57.02
2022-08-17T01:47:32.786Z,58.69
2022-08-17T01:52:41.068Z,67.36
2022-08-17T01:57:45.859Z,62.78
2022-08-17T02:02:49.262Z,55.42
2022-08-17T02:08:00.204Z,55.12
2022-08-17T02:13:05.030Z,56.93
2022-08-17T02:18:10.507Z,59.35
2022-08-17T02:23:15.026Z,66.63
2022-08-17T02:28:19.245Z,63.20
2022-08-17T02:33:22.655Z,55.37
2022-08-17T02:38:26.200Z,55.33
2022-08-17T02:43:29.481Z,57.17
2022-08-17T02:48:32.806Z,58.76
2022-08-17T02:53:36.323Z,66.58
2022-08-17T02:58:39.940Z,63.15
2022-08-17T03:03:43.275Z,55.61
2022-08-17T03:08:46.448Z,55.30
2022-08-17T03:13:51.336Z,57.39
2022-08-17T03:18:55.423Z,59.18
2022-08-17T03:23:58.631Z,67.23
2022-08-17T03:29:01.874Z,62.34
2022-08-17T03:34:05.360Z,55.34
2022-08-17T03:39:09.263Z,56.24
2022-08-17T03:44:12.592Z,58.00
2022-08-17T03:49:34.235Z,59.94
2022-08-17T03:54:56.385Z,67.78
2022-08-17T04:00:00.240Z,64.12
2022-08-17T04:05:03.966Z,55.91
2022-08-17T04:10:08.147Z,56.26
2022-08-17T04:15:12.834Z,57.68
2022-08-17T04:20:20.587Z,59.45
2022-08-17T04:25:23.627Z,68.20
2022-08-17T04:30:33.679Z,64.92
2022-08-17T04:35:50.418Z,56.06
2022-08-17T04:41:13.601Z,56.17
2022-08-17T04:46:20.256Z,57.92
2022-08-17T04:51:32.605Z,60.02
2022-08-17T04:56:36.743Z,68.90
2022-08-17T05:01:42.354Z,62.80
2022-08-17T05:06:47.297Z,55.47
2022-08-17T05:11:50.573Z,55.39
2022-08-17T05:16:53.776Z,58.43
2022-08-17T05:21:56.983Z,60.96
2022-08-17T05:27:06.037Z,67.43
2022-08-17T05:32:39.624Z,62.15
2022-08-17T05:37:37.939Z,53.96
2022-08-17T05:42:41.495Z,56.03
2022-08-17T05:47:47.331Z,57.38
2022-08-17T05:53:12.876Z,59.83
2022-08-17T05:58:28.058Z,64.50
2022-08-17T06:04:03.104Z,56.19
2022-08-17T06:09:13.900Z,56.14
2022-08-17T06:14:29.448Z,58.31
2022-08-17T06:19:32.775Z,59.29
2022-08-17T06:24:46.869Z,59.60
2022-08-17T06:30:11.525Z,60.98
2022-08-17T06:35:30.029Z,64.49
2022-08-17T06:40:50.454Z,56.77
2022-08-17T06:46:37.921Z,56.58
2022-08-17T06:51:50.736Z,57.16
2022-08-17T06:57:19.044Z,58.59
2022-08-17T07:03:02.681Z,59.36
2022-08-17T07:08:20.558Z,60.34
2022-08-17T07:13:51.376Z,60.82
2022-08-17T07:18:59.135Z,66.07
2022-08-17T07:24:29.469Z,59.22
2022-08-17T07:29:57.860Z,53.81
2022-08-17T07:35:17.174Z,56.69
2022-08-17T07:40:27.798Z,59.13
2022-08-17T07:45:50.810Z,60.23
2022-08-17T07:50:55.328Z,60.13
2022-08-17T07:55:58.748Z,61.35
2022-08-17T08:01:15.722Z,61.45
2022-08-17T08:06:25.165Z,61.30
2022-08-17T08:11:40.143Z,60.90
2022-08-17T08:17:09.399Z,60.58
2022-08-17T08:22:29.769Z,60.35
2022-08-17T08:28:07.233Z,59.30
2022-08-17T08:33:50.025Z,59.09
2022-08-17T08:39:06.730Z,58.46
2022-08-17T08:45:03.614Z,57.82
2022-08-17T08:50:37.429Z,56.68
2022-08-17T08:55:59.294Z,55.39
2022-08-17T09:01:28.110Z,56.88
2022-08-17T09:06:51.265Z,56.98
2022-08-17T09:12:09.645Z,57.60
2022-08-17T09:17:25.740Z,57.21
2022-08-17T09:29:48.657Z,55.91
2022-08-17T09:35:00.348Z,54.55
2022-08-17T09:40:23.725Z,54.58
2022-08-17T09:45:45.672Z,53.02
2022-08-17T09:51:18.478Z,52.23
2022-08-17T09:56:36.852Z,52.08
2022-08-17T10:01:46.540Z,50.62
2022-08-17T10:07:30.981Z,49.98
2022-08-17T10:13:06.950Z,50.11
2022-08-17T10:18:21.644Z,49.04
2022-08-17T10:23:48.803Z,49.08
2022-08-17T10:29:34.158Z,49.23
2022-08-17T10:35:49.657Z,48.23
2022-08-17T10:41:38.155Z,47.66
2022-08-17T10:47:08.003Z,47.66
2022-08-17T10:52:20.057Z,46.09
2022-08-17T10:57:47.562Z,46.99
2022-08-17T11:02:54.825Z,48.26
2022-08-17T11:08:34.406Z,48.56
2022-08-17T11:14:07.882Z,48.94
2022-08-17T11:19:18.698Z,46.33
2022-08-17T11:24:36.029Z,45.39
2022-08-17T11:29:56.787Z,45.77
2022-08-17T11:35:47.356Z,46.60
2022-08-17T11:41:08.885Z,45.87
2022-08-17T11:47:01.918Z,45.46
2022-08-17T11:52:05.698Z,46.02
2022-08-17T11:57:27.374Z,45.88
2022-08-17T12:02:39.041Z,44.46
2022-08-17T12:08:04.974Z,42.80
2022-08-17T12:13:16.564Z,43.73
2022-08-17T12:18:32.406Z,43.85
2022-08-17T12:24:14.810Z,44.03
2022-08-17T12:29:35.863Z,44.57
2022-08-17T12:35:33.250Z,43.92
2022-08-17T12:40:36.871Z,42.78
2022-08-17T12:45:40.551Z,41.64
2022-08-17T12:50:46.235Z,40.70
2022-08-17T12:55:51.688Z,38.99
2022-08-17T13:01:11.273Z,39.64
2022-08-17T13:06:35.448Z,39.39
2022-08-17T13:11:50.794Z,41.44
2022-08-17T13:17:02.285Z,42.94
2022-08-17T13:22:15.103Z,42.83
2022-08-17T13:27:22.260Z,43.30
2022-08-17T13:32:33.677Z,43.11
2022-08-17T13:37:37.581Z,43.05
2022-08-17T13:42:53.058Z,42.33
2022-08-17T13:48:14.768Z,41.58
2022-08-17T13:53:31.501Z,39.75
2022-08-17T13:58:56.627Z,38.59
2022-08-17T14:04:04.526Z,39.61
2022-08-17T14:09:08.062Z,40.06
2022-08-17T14:14:14.661Z,40.84
2022-08-17T14:19:18.868Z,41.66
2022-08-17T14:24:39.989Z,42.11
2022-08-17T14:29:46.283Z,42.57
2022-08-17T14:34:50.427Z,41.65
2022-08-17T14:39:59.946Z,39.43
2022-08-17T14:45:06.468Z,37.63
2022-08-17T14:50:30.286Z,38.11
2022-08-17T14:55:37.063Z,37.63
2022-08-17T15:00:43.241Z,38.39
2022-08-17T15:05:47.143Z,38.58
2022-08-17T15:10:54.195Z,39.30
2022-08-17T15:16:02.894Z,39.06
2022-08-17T15:21:09.917Z,39.74
2022-08-17T15:26:13.191Z,39.92
2022-08-17T15:31:18.357Z,39.67
2022-08-17T15:36:35.476Z,39.83
2022-08-17T15:41:38.688Z,39.45
2022-08-17T15:46:41.993Z,39.71
2022-08-17T15:51:45.243Z,40.87
2022-08-17T15:56:48.642Z,43.46
2022-08-17T16:03:15.225Z,42.74
2022-08-17T16:07:26.483Z,40.39
2022-08-17T16:12:30.191Z,40.34
2022-08-17T16:17:39.839Z,39.30
2022-08-17T16:22:46.306Z,39.31
2022-08-17T16:27:53.623Z,39.52
2022-08-17T16:33:02.171Z,40.05
2022-08-17T16:38:07.054Z,40.87
2022-08-17T16:43:10.913Z,41.89
2022-08-17T16:48:16.000Z,42.43
2022-08-17T16:53:20.479Z,42.78
2022-08-17T16:58:23.747Z,43.36
2022-08-17T17:03:31.474Z,44.14
2022-08-17T17:08:49.313Z,44.45
2022-08-17T17:14:01.785Z,44.62
2022-08-17T17:19:46.849Z,44.97
2022-08-17T17:25:21.593Z,45.24
2022-08-17T17:30:57.047Z,45.66
2022-08-17T17:36:27.823Z,46.29
2022-08-17T17:41:47.299Z,47.08
2022-08-17T17:47:03.891Z,47.33
2022-08-17T17:52:30.539Z,48.19
2022-08-17T17:58:20.471Z,48.65
2022-08-17T18:03:50.933Z,49.28
2022-08-17T18:09:36.737Z,49.82
2022-08-17T18:20:53.504Z,50.40
2022-08-17T18:33:26.453Z,50.70
2022-08-17T18:39:26.478Z,51.38
2022-08-17T18:57:05.644Z,51.99
2022-08-17T19:10:48.173Z,53.84
2022-08-17T19:17:12.100Z,54.45
2022-08-17T19:22:50.152Z,54.38
2022-08-17T19:28:00.121Z,55.17
2022-08-17T19:33:04.878Z,55.53
2022-08-17T19:38:59.076Z,56.21
2022-08-17T19:44:27.373Z,56.33
2022-08-17T19:49:47.068Z,56.72
2022-08-17T19:55:20.807Z,57.47
2022-08-17T20:00:24.584Z,57.44
2022-08-17T20:06:00.958Z,58.41
2022-08-17T20:11:10.936Z,57.99
2022-08-17T20:16:14.275Z,59.03
2022-08-17T20:21:29.028Z,59.19
2022-08-17T20:26:59.909Z,59.34
2022-08-17T20:32:03.088Z,59.19
2022-08-17T20:37:15.112Z,59.48
2022-08-17T20:42:21.288Z,59.82
2022-08-17T20:48:18.621Z,60.36
2022-08-17T20:53:53.832Z,59.63
2022-08-17T20:58:57.134Z,59.58
2022-08-17T21:04:00.648Z,59.60
2022-08-17T21:09:12.976Z,59.69
2022-08-17T21:14:31.434Z,59.86
2022-08-17T21:20:11.397Z,60.54
2022-08-17T21:25:58.174Z,60.77
2022-08-17T21:31:09.127Z,60.86
2022-08-17T21:36:12.544Z,61.56
2022-08-17T21:41:27.728Z,61.27
2022-08-17T21:46:38.009Z,70.15
2022-08-17T21:51:51.300Z,65.42
2022-08-17T21:56:55.273Z,55.01
2022-08-17T22:02:02.962Z,53.74
2022-08-17T22:07:13.466Z,54.47
2022-08-17T22:12:24.547Z,56.05
2022-08-17T22:17:35.897Z,57.56
2022-08-17T22:23:20.771Z,58.83
2022-08-17T22:28:44.234Z,59.80
2022-08-17T22:34:02.187Z,60.89
2022-08-17T22:39:11.234Z,70.25
2022-08-17T22:44:37.916Z,63.82
2022-08-17T22:49:58.202Z,54.89
2022-08-17T22:55:32.742Z,55.15
2022-08-17T23:00:47.705Z,56.88
2022-08-17T23:06:10.808Z,58.67
2022-08-17T23:11:15.453Z,60.42
2022-08-17T23:16:18.750Z,69.36
2022-08-17T23:21:29.652Z,64.50
2022-08-17T23:26:39.609Z,57.34
2022-08-17T23:31:43.032Z,56.59
2022-08-17T23:36:52.276Z,57.53
2022-08-17T23:42:01.148Z,59.82
2022-08-17T23:47:05.869Z,67.90
2022-08-17T23:52:15.152Z,61.90
2022-08-17T23:57:33.819Z,55.02
